sensor_id;sensor_type;location;lat;lon;timestamp;temperature;humidity
73112;HTU21D;61301;51.956;5.876;2023-05-07T00:00:22;20.31;58.01
73112;HTU21D;61301;51.956;5.876;2023-05-07T00:02:48;20.31;57.98
73112;HTU21D;61301;51.956;5.876;2023-05-07T00:05:14;20.28;58.22
73112;HTU21D;61301;51.956;5.876;2023-05-07T00:07:40;20.25;58.30
73112;HTU21D;61301;51.956;5.876;2023-05-07T00:10:10;20.22;58.22
73112;HTU21D;61301;51.956;5.876;2023-05-07T00:12:36;20.21;58.18
73112;HTU21D;61301;51.956;5.876;2023-05-07T00:15:03;20.26;58.08
73112;HTU21D;61301;51.956;5.876;2023-05-07T00:17:29;20.21;58.05
73112;HTU21D;61301;51.956;5.876;2023-05-07T00:19:55;20.21;58.02
73112;HTU21D;61301;51.956;5.876;2023-05-07T00:22:21;20.22;57.87
73112;HTU21D;61301;51.956;5.876;2023-05-07T00:24:48;20.27;57.82
73112;HTU21D;61301;51.956;5.876;2023-05-07T00:27:14;20.29;57.72
73112;HTU21D;61301;51.956;5.876;2023-05-07T00:29:40;20.29;57.68
73112;HTU21D;61301;51.956;5.876;2023-05-07T00:32:06;20.29;57.58
73112;HTU21D;61301;51.956;5.876;2023-05-07T00:34:31;20.27;57.55
73112;HTU21D;61301;51.956;5.876;2023-05-07T00:36:57;20.24;57.50
73112;HTU21D;61301;51.956;5.876;2023-05-07T00:39:23;20.25;57.51
73112;HTU21D;61301;51.956;5.876;2023-05-07T00:41:49;20.22;57.49
73112;HTU21D;61301;51.956;5.876;2023-05-07T00:44:17;20.20;57.49
73112;HTU21D;61301;51.956;5.876;2023-05-07T00:46:44;20.20;57.50
73112;HTU21D;61301;51.956;5.876;2023-05-07T00:49:11;20.17;57.53
73112;HTU21D;61301;51.956;5.876;2023-05-07T00:51:37;20.14;57.53
73112;HTU21D;61301;51.956;5.876;2023-05-07T00:54:03;20.06;57.60
73112;HTU21D;61301;51.956;5.876;2023-05-07T00:56:29;20.00;57.63
73112;HTU21D;61301;51.956;5.876;2023-05-07T00:58:56;19.98;57.71
73112;HTU21D;61301;51.956;5.876;2023-05-07T01:01:22;19.94;57.73
73112;HTU21D;61301;51.956;5.876;2023-05-07T01:03:48;19.89;57.77
73112;HTU21D;61301;51.956;5.876;2023-05-07T01:06:14;19.86;57.84
73112;HTU21D;61301;51.956;5.876;2023-05-07T01:08:42;19.83;57.84
73112;HTU21D;61301;51.956;5.876;2023-05-07T01:11:09;19.82;57.80
73112;HTU21D;61301;51.956;5.876;2023-05-07T01:13:36;19.82;57.74
73112;HTU21D;61301;51.956;5.876;2023-05-07T01:16:04;19.83;57.70
73112;HTU21D;61301;51.956;5.876;2023-05-07T01:18:30;19.81;57.72
73112;HTU21D;61301;51.956;5.876;2023-05-07T01:20:58;19.81;57.72
73112;HTU21D;61301;51.956;5.876;2023-05-07T01:23:25;19.79;57.81
73112;HTU21D;61301;51.956;5.876;2023-05-07T01:25:53;19.76;57.84
73112;HTU21D;61301;51.956;5.876;2023-05-07T01:28:21;19.75;57.81
73112;HTU21D;61301;51.956;5.876;2023-05-07T01:31:01;19.82;57.80
73112;HTU21D;61301;51.956;5.876;2023-05-07T01:33:29;19.80;57.85
73112;HTU21D;61301;51.956;5.876;2023-05-07T01:35:57;19.79;57.86
73112;HTU21D;61301;51.956;5.876;2023-05-07T01:38:27;19.80;57.79
73112;HTU21D;61301;51.956;5.876;2023-05-07T01:40:53;19.79;57.85
73112;HTU21D;61301;51.956;5.876;2023-05-07T01:43:19;19.75;57.94
73112;HTU21D;61301;51.956;5.876;2023-05-07T01:45:46;19.75;57.90
73112;HTU21D;61301;51.956;5.876;2023-05-07T01:48:13;19.74;58.00
73112;HTU21D;61301;51.956;5.876;2023-05-07T01:50:44;19.72;58.01
73112;HTU21D;61301;51.956;5.876;2023-05-07T01:53:10;19.73;57.99
73112;HTU21D;61301;51.956;5.876;2023-05-07T01:55:36;19.72;57.96
73112;HTU21D;61301;51.956;5.876;2023-05-07T01:58:06;19.72;57.93
73112;HTU21D;61301;51.956;5.876;2023-05-07T02:00:32;19.74;57.91
73112;HTU21D;61301;51.956;5.876;2023-05-07T02:02:58;19.74;58.01
73112;HTU21D;61301;51.956;5.876;2023-05-07T02:05:39;19.74;58.00
73112;HTU21D;61301;51.956;5.876;2023-05-07T02:08:12;19.72;58.06
73112;HTU21D;61301;51.956;5.876;2023-05-07T02:10:38;19.72;58.05
73112;HTU21D;61301;51.956;5.876;2023-05-07T02:13:06;19.71;58.06
73112;HTU21D;61301;51.956;5.876;2023-05-07T02:15:32;19.70;58.13
73112;HTU21D;61301;51.956;5.876;2023-05-07T02:18:08;19.71;58.19
73112;HTU21D;61301;51.956;5.876;2023-05-07T02:20:35;19.69;58.23
73112;HTU21D;61301;51.956;5.876;2023-05-07T02:23:02;19.68;58.24
73112;HTU21D;61301;51.956;5.876;2023-05-07T02:25:29;19.69;58.26
73112;HTU21D;61301;51.956;5.876;2023-05-07T02:27:56;19.66;58.35
73112;HTU21D;61301;51.956;5.876;2023-05-07T02:30:29;19.62;58.49
73112;HTU21D;61301;51.956;5.876;2023-05-07T02:32:57;19.57;58.66
73112;HTU21D;61301;51.956;5.876;2023-05-07T02:35:26;19.54;58.74
73112;HTU21D;61301;51.956;5.876;2023-05-07T02:37:53;19.53;58.69
73112;HTU21D;61301;51.956;5.876;2023-05-07T02:40:19;19.51;58.66
73112;HTU21D;61301;51.956;5.876;2023-05-07T02:42:45;19.53;58.56
73112;HTU21D;61301;51.956;5.876;2023-05-07T02:45:11;19.53;58.54
73112;HTU21D;61301;51.956;5.876;2023-05-07T02:47:38;19.53;58.51
73112;HTU21D;61301;51.956;5.876;2023-05-07T02:50:04;19.57;58.41
73112;HTU21D;61301;51.956;5.876;2023-05-07T02:52:31;19.59;58.30
73112;HTU21D;61301;51.956;5.876;2023-05-07T02:54:57;19.61;58.25
73112;HTU21D;61301;51.956;5.876;2023-05-07T02:57:23;19.57;58.40
73112;HTU21D;61301;51.956;5.876;2023-05-07T02:59:49;19.60;58.40
73112;HTU21D;61301;51.956;5.876;2023-05-07T03:02:16;19.53;58.59
73112;HTU21D;61301;51.956;5.876;2023-05-07T03:04:42;19.51;58.56
73112;HTU21D;61301;51.956;5.876;2023-05-07T03:07:08;19.51;58.56
73112;HTU21D;61301;51.956;5.876;2023-05-07T03:09:34;19.48;58.63
73112;HTU21D;61301;51.956;5.876;2023-05-07T03:12:00;19.47;58.55
73112;HTU21D;61301;51.956;5.876;2023-05-07T03:14:27;19.47;58.58
73112;HTU21D;61301;51.956;5.876;2023-05-07T03:16:53;19.44;58.72
73112;HTU21D;61301;51.956;5.876;2023-05-07T03:19:19;19.41;58.87
73112;HTU21D;61301;51.956;5.876;2023-05-07T03:21:45;19.41;58.85
73112;HTU21D;61301;51.956;5.876;2023-05-07T03:24:11;19.39;58.78
73112;HTU21D;61301;51.956;5.876;2023-05-07T03:26:37;19.41;58.86
73112;HTU21D;61301;51.956;5.876;2023-05-07T03:29:04;19.41;58.84
73112;HTU21D;61301;51.956;5.876;2023-05-07T03:31:30;19.39;58.96
73112;HTU21D;61301;51.956;5.876;2023-05-07T03:33:57;19.38;58.98
73112;HTU21D;61301;51.956;5.876;2023-05-07T03:36:24;19.38;58.93
73112;HTU21D;61301;51.956;5.876;2023-05-07T03:38:52;19.36;59.21
73112;HTU21D;61301;51.956;5.876;2023-05-07T03:41:22;19.36;59.28
73112;HTU21D;61301;51.956;5.876;2023-05-07T03:43:48;19.33;59.24
73112;HTU21D;61301;51.956;5.876;2023-05-07T03:46:14;19.35;59.09
73112;HTU21D;61301;51.956;5.876;2023-05-07T03:48:41;19.36;59.22
73112;HTU21D;61301;51.956;5.876;2023-05-07T03:51:08;19.33;59.19
73112;HTU21D;61301;51.956;5.876;2023-05-07T03:53:33;19.32;59.20
73112;HTU21D;61301;51.956;5.876;2023-05-07T03:56:00;19.29;59.43
73112;HTU21D;61301;51.956;5.876;2023-05-07T03:58:29;19.28;59.44
73112;HTU21D;61301;51.956;5.876;2023-05-07T04:00:58;19.23;59.88
73112;HTU21D;61301;51.956;5.876;2023-05-07T04:03:27;19.21;59.96
73112;HTU21D;61301;51.956;5.876;2023-05-07T04:05:56;19.20;60.17
73112;HTU21D;61301;51.956;5.876;2023-05-07T04:08:23;19.17;60.41
73112;HTU21D;61301;51.956;5.876;2023-05-07T04:10:56;19.11;60.57
73112;HTU21D;61301;51.956;5.876;2023-05-07T04:13:24;19.10;60.35
73112;HTU21D;61301;51.956;5.876;2023-05-07T04:15:52;19.12;60.23
73112;HTU21D;61301;51.956;5.876;2023-05-07T04:18:19;19.15;60.20
73112;HTU21D;61301;51.956;5.876;2023-05-07T04:20:50;19.18;60.15
73112;HTU21D;61301;51.956;5.876;2023-05-07T04:23:16;19.15;60.37
73112;HTU21D;61301;51.956;5.876;2023-05-07T04:25:42;19.21;60.38
73112;HTU21D;61301;51.956;5.876;2023-05-07T04:28:23;19.15;60.77
73112;HTU21D;61301;51.956;5.876;2023-05-07T04:30:50;19.01;61.15
73112;HTU21D;61301;51.956;5.876;2023-05-07T04:33:16;18.97;61.17
73112;HTU21D;61301;51.956;5.876;2023-05-07T04:35:44;18.99;61.38
73112;HTU21D;61301;51.956;5.876;2023-05-07T04:38:10;18.98;61.41
73112;HTU21D;61301;51.956;5.876;2023-05-07T04:40:36;18.91;61.77
73112;HTU21D;61301;51.956;5.876;2023-05-07T04:43:03;18.91;61.73
73112;HTU21D;61301;51.956;5.876;2023-05-07T04:45:33;18.83;62.23
73112;HTU21D;61301;51.956;5.876;2023-05-07T04:47:59;18.78;62.51
73112;HTU21D;61301;51.956;5.876;2023-05-07T04:50:25;18.78;62.58
73112;HTU21D;61301;51.956;5.876;2023-05-07T04:52:55;18.74;62.73
73112;HTU21D;61301;51.956;5.876;2023-05-07T04:55:23;18.76;62.71
73112;HTU21D;61301;51.956;5.876;2023-05-07T04:57:49;18.77;62.89
73112;HTU21D;61301;51.956;5.876;2023-05-07T05:00:16;18.74;62.98
73112;HTU21D;61301;51.956;5.876;2023-05-07T05:02:45;18.73;62.97
73112;HTU21D;61301;51.956;5.876;2023-05-07T05:05:15;18.78;63.03
73112;HTU21D;61301;51.956;5.876;2023-05-07T05:07:42;18.80;63.02
73112;HTU21D;61301;51.956;5.876;2023-05-07T05:10:08;18.85;62.70
73112;HTU21D;61301;51.956;5.876;2023-05-07T05:12:37;18.93;62.50
73112;HTU21D;61301;51.956;5.876;2023-05-07T05:15:04;18.94;62.70
73112;HTU21D;61301;51.956;5.876;2023-05-07T05:17:31;18.94;62.83
73112;HTU21D;61301;51.956;5.876;2023-05-07T05:19:58;18.95;62.78
73112;HTU21D;61301;51.956;5.876;2023-05-07T05:22:24;18.98;62.63
73112;HTU21D;61301;51.956;5.876;2023-05-07T05:24:51;18.98;62.79
73112;HTU21D;61301;51.956;5.876;2023-05-07T05:27:17;18.99;62.75
73112;HTU21D;61301;51.956;5.876;2023-05-07T05:29:46;19.02;62.63
73112;HTU21D;61301;51.956;5.876;2023-05-07T05:32:12;19.03;62.69
73112;HTU21D;61301;51.956;5.876;2023-05-07T05:34:38;19.01;62.88
73112;HTU21D;61301;51.956;5.876;2023-05-07T05:37:05;19.00;62.94
73112;HTU21D;61301;51.956;5.876;2023-05-07T05:39:31;19.01;63.00
73112;HTU21D;61301;51.956;5.876;2023-05-07T05:41:58;19.01;62.98
73112;HTU21D;61301;51.956;5.876;2023-05-07T05:44:24;19.00;63.02
73112;HTU21D;61301;51.956;5.876;2023-05-07T05:46:51;19.06;63.00
73112;HTU21D;61301;51.956;5.876;2023-05-07T05:49:17;19.00;63.19
73112;HTU21D;61301;51.956;5.876;2023-05-07T05:51:45;18.98;63.25
73112;HTU21D;61301;51.956;5.876;2023-05-07T05:54:12;18.98;63.23
73112;HTU21D;61301;51.956;5.876;2023-05-07T05:56:38;19.00;63.32
73112;HTU21D;61301;51.956;5.876;2023-05-07T05:59:04;18.97;63.32
73112;HTU21D;61301;51.956;5.876;2023-05-07T06:01:30;18.97;63.29
73112;HTU21D;61301;51.956;5.876;2023-05-07T06:04:00;19.01;63.28
73112;HTU21D;61301;51.956;5.876;2023-05-07T06:06:26;19.03;63.30
73112;HTU21D;61301;51.956;5.876;2023-05-07T06:08:52;19.03;63.23
73112;HTU21D;61301;51.956;5.876;2023-05-07T06:11:24;19.05;63.27
73112;HTU21D;61301;51.956;5.876;2023-05-07T06:13:50;19.06;63.28
73112;HTU21D;61301;51.956;5.876;2023-05-07T06:16:16;19.06;63.37
73112;HTU21D;61301;51.956;5.876;2023-05-07T06:18:43;19.06;63.44
73112;HTU21D;61301;51.956;5.876;2023-05-07T06:21:13;19.13;63.33
73112;HTU21D;61301;51.956;5.876;2023-05-07T06:23:39;19.20;63.15
73112;HTU21D;61301;51.956;5.876;2023-05-07T06:26:07;19.27;63.09
73112;HTU21D;61301;51.956;5.876;2023-05-07T06:28:38;19.31;62.97
73112;HTU21D;61301;51.956;5.876;2023-05-07T06:33:39;19.38;62.88
73112;HTU21D;61301;51.956;5.876;2023-05-07T06:36:06;19.41;62.86
73112;HTU21D;61301;51.956;5.876;2023-05-07T06:38:32;19.41;62.86
73112;HTU21D;61301;51.956;5.876;2023-05-07T06:40:58;19.39;62.88
73112;HTU21D;61301;51.956;5.876;2023-05-07T06:43:27;19.50;62.76
73112;HTU21D;61301;51.956;5.876;2023-05-07T06:45:56;19.45;62.79
73112;HTU21D;61301;51.956;5.876;2023-05-07T06:48:22;19.41;63.08
73112;HTU21D;61301;51.956;5.876;2023-05-07T06:50:55;19.29;63.35
73112;HTU21D;61301;51.956;5.876;2023-05-07T06:53:24;19.27;63.42
73112;HTU21D;61301;51.956;5.876;2023-05-07T06:55:50;19.36;63.28
73112;HTU21D;61301;51.956;5.876;2023-05-07T06:58:19;19.50;62.97
73112;HTU21D;61301;51.956;5.876;2023-05-07T07:00:45;19.47;63.02
73112;HTU21D;61301;51.956;5.876;2023-05-07T07:03:12;19.53;62.92
73112;HTU21D;61301;51.956;5.876;2023-05-07T07:05:41;19.54;62.85
73112;HTU21D;61301;51.956;5.876;2023-05-07T07:08:07;19.51;62.91
73112;HTU21D;61301;51.956;5.876;2023-05-07T07:10:33;19.52;62.98
73112;HTU21D;61301;51.956;5.876;2023-05-07T07:13:01;19.56;62.83
73112;HTU21D;61301;51.956;5.876;2023-05-07T07:15:27;19.59;62.74
73112;HTU21D;61301;51.956;5.876;2023-05-07T07:17:55;19.54;62.74
73112;HTU21D;61301;51.956;5.876;2023-05-07T07:20:22;19.50;62.76
73112;HTU21D;61301;51.956;5.876;2023-05-07T07:22:48;19.48;62.83
73112;HTU21D;61301;51.956;5.876;2023-05-07T07:25:16;19.50;62.89
73112;HTU21D;61301;51.956;5.876;2023-05-07T07:27:42;19.57;62.69
73112;HTU21D;61301;51.956;5.876;2023-05-07T07:30:09;19.55;62.72
73112;HTU21D;61301;51.956;5.876;2023-05-07T07:32:37;19.59;62.76
73112;HTU21D;61301;51.956;5.876;2023-05-07T07:35:04;19.66;62.57
73112;HTU21D;61301;51.956;5.876;2023-05-07T07:37:32;19.71;62.38
73112;HTU21D;61301;51.956;5.876;2023-05-07T07:39:58;19.72;62.28
73112;HTU21D;61301;51.956;5.876;2023-05-07T07:42:25;19.70;62.34
73112;HTU21D;61301;51.956;5.876;2023-05-07T07:44:51;19.71;62.31
73112;HTU21D;61301;51.956;5.876;2023-05-07T07:47:22;19.77;62.06
73112;HTU21D;61301;51.956;5.876;2023-05-07T07:49:49;19.72;62.08
73112;HTU21D;61301;51.956;5.876;2023-05-07T07:52:15;19.70;62.25
73112;HTU21D;61301;51.956;5.876;2023-05-07T07:54:44;19.75;62.31
73112;HTU21D;61301;51.956;5.876;2023-05-07T07:57:10;19.85;62.28
73112;HTU21D;61301;51.956;5.876;2023-05-07T07:59:36;19.83;62.48
73112;HTU21D;61301;51.956;5.876;2023-05-07T08:02:06;19.91;62.55
73112;HTU21D;61301;51.956;5.876;2023-05-07T08:04:34;19.89;62.57
73112;HTU21D;61301;51.956;5.876;2023-05-07T08:07:04;19.86;62.66
73112;HTU21D;61301;51.956;5.876;2023-05-07T08:09:32;19.91;62.73
73112;HTU21D;61301;51.956;5.876;2023-05-07T08:12:00;19.99;62.51
73112;HTU21D;61301;51.956;5.876;2023-05-07T08:14:28;20.13;62.30
73112;HTU21D;61301;51.956;5.876;2023-05-07T08:16:55;20.25;62.27
73112;HTU21D;61301;51.956;5.876;2023-05-07T08:19:22;20.21;62.25
73112;HTU21D;61301;51.956;5.876;2023-05-07T08:21:48;20.24;62.07
73112;HTU21D;61301;51.956;5.876;2023-05-07T08:24:16;20.25;62.15
73112;HTU21D;61301;51.956;5.876;2023-05-07T08:26:43;20.24;62.02
73112;HTU21D;61301;51.956;5.876;2023-05-07T08:29:10;20.19;62.06
73112;HTU21D;61301;51.956;5.876;2023-05-07T08:31:37;20.28;61.95
73112;HTU21D;61301;51.956;5.876;2023-05-07T08:34:05;20.28;61.73
73112;HTU21D;61301;51.956;5.876;2023-05-07T08:36:33;20.28;61.69
73112;HTU21D;61301;51.956;5.876;2023-05-07T08:38:59;20.33;61.86
73112;HTU21D;61301;51.956;5.876;2023-05-07T08:41:26;20.47;61.75
73112;HTU21D;61301;51.956;5.876;2023-05-07T08:43:53;20.53;61.28
73112;HTU21D;61301;51.956;5.876;2023-05-07T08:46:24;20.47;61.36
73112;HTU21D;61301;51.956;5.876;2023-05-07T08:48:54;20.50;61.54
73112;HTU21D;61301;51.956;5.876;2023-05-07T08:51:21;20.59;61.47
73112;HTU21D;61301;51.956;5.876;2023-05-07T08:53:49;20.62;61.38
73112;HTU21D;61301;51.956;5.876;2023-05-07T08:56:21;20.68;61.34
73112;HTU21D;61301;51.956;5.876;2023-05-07T08:58:49;20.75;60.97
73112;HTU21D;61301;51.956;5.876;2023-05-07T09:01:16;20.80;60.87
73112;HTU21D;61301;51.956;5.876;2023-05-07T09:03:45;20.90;60.51
73112;HTU21D;61301;51.956;5.876;2023-05-07T09:06:12;20.94;60.53
73112;HTU21D;61301;51.956;5.876;2023-05-07T09:08:38;21.06;60.45
73112;HTU21D;61301;51.956;5.876;2023-05-07T09:11:06;21.15;60.51
73112;HTU21D;61301;51.956;5.876;2023-05-07T09:13:32;21.23;60.23
73112;HTU21D;61301;51.956;5.876;2023-05-07T09:16:13;21.45;60.16
73112;HTU21D;61301;51.956;5.876;2023-05-07T09:18:42;21.61;59.86
73112;HTU21D;61301;51.956;5.876;2023-05-07T09:21:12;21.66;59.01
73112;HTU21D;61301;51.956;5.876;2023-05-07T09:23:41;21.76;58.60
73112;HTU21D;61301;51.956;5.876;2023-05-07T09:26:07;21.79;58.45
73112;HTU21D;61301;51.956;5.876;2023-05-07T09:28:42;21.82;58.26
73112;HTU21D;61301;51.956;5.876;2023-05-07T09:31:12;22.01;58.36
73112;HTU21D;61301;51.956;5.876;2023-05-07T09:33:39;22.16;58.17
73112;HTU21D;61301;51.956;5.876;2023-05-07T09:36:07;22.33;57.60
73112;HTU21D;61301;51.956;5.876;2023-05-07T09:38:36;22.36;57.42
73112;HTU21D;61301;51.956;5.876;2023-05-07T09:41:09;22.44;57.35
73112;HTU21D;61301;51.956;5.876;2023-05-07T09:43:43;22.56;56.36
73112;HTU21D;61301;51.956;5.876;2023-05-07T09:46:13;22.60;56.37
73112;HTU21D;61301;51.956;5.876;2023-05-07T09:48:43;22.75;56.21
73112;HTU21D;61301;51.956;5.876;2023-05-07T09:53:50;22.98;55.04
73112;HTU21D;61301;51.956;5.876;2023-05-07T09:56:17;22.90;54.95
73112;HTU21D;61301;51.956;5.876;2023-05-07T09:58:44;22.97;54.88
73112;HTU21D;61301;51.956;5.876;2023-05-07T10:01:12;22.98;54.68
73112;HTU21D;61301;51.956;5.876;2023-05-07T10:03:41;23.10;55.01
73112;HTU21D;61301;51.956;5.876;2023-05-07T10:06:09;23.36;54.94
73112;HTU21D;61301;51.956;5.876;2023-05-07T10:08:37;23.51;54.26
73112;HTU21D;61301;51.956;5.876;2023-05-07T10:11:04;23.74;54.19
73112;HTU21D;61301;51.956;5.876;2023-05-07T10:13:34;23.89;52.69
73112;HTU21D;61301;51.956;5.876;2023-05-07T10:16:05;24.02;52.52
73112;HTU21D;61301;51.956;5.876;2023-05-07T10:18:38;24.20;52.69
73112;HTU21D;61301;51.956;5.876;2023-05-07T10:21:18;24.29;51.13
73112;HTU21D;61301;51.956;5.876;2023-05-07T10:23:57;24.20;51.68
73112;HTU21D;61301;51.956;5.876;2023-05-07T10:26:25;24.54;52.30
73112;HTU21D;61301;51.956;5.876;2023-05-07T10:28:59;24.98;51.52
73112;HTU21D;61301;51.956;5.876;2023-05-07T10:34:22;25.44;50.47
73112;HTU21D;61301;51.956;5.876;2023-05-07T10:36:50;25.23;48.82
73112;HTU21D;61301;51.956;5.876;2023-05-07T10:39:19;25.20;48.85
73112;HTU21D;61301;51.956;5.876;2023-05-07T10:41:46;25.20;49.21
73112;HTU21D;61301;51.956;5.876;2023-05-07T10:44:27;25.25;49.21
73112;HTU21D;61301;51.956;5.876;2023-05-07T10:47:07;25.42;48.79
73112;HTU21D;61301;51.956;5.876;2023-05-07T10:52:22;25.71;47.54
73112;HTU21D;61301;51.956;5.876;2023-05-07T10:55:18;25.79;47.83
73112;HTU21D;61301;51.956;5.876;2023-05-07T11:00:49;25.94;47.72
73112;HTU21D;61301;51.956;5.876;2023-05-07T11:03:26;26.12;46.55
73112;HTU21D;61301;51.956;5.876;2023-05-07T11:06:10;26.28;47.22
73112;HTU21D;61301;51.956;5.876;2023-05-07T11:09:01;26.58;46.22
73112;HTU21D;61301;51.956;5.876;2023-05-07T11:11:50;26.43;45.95
73112;HTU21D;61301;51.956;5.876;2023-05-07T11:17:11;26.26;46.40
73112;HTU21D;61301;51.956;5.876;2023-05-07T11:19:54;26.35;46.40
73112;HTU21D;61301;51.956;5.876;2023-05-07T11:22:42;26.37;46.62
73112;HTU21D;61301;51.956;5.876;2023-05-07T11:25:18;26.41;46.25
73112;HTU21D;61301;51.956;5.876;2023-05-07T11:27:46;26.42;46.20
73112;HTU21D;61301;51.956;5.876;2023-05-07T11:30:19;26.43;45.80
73112;HTU21D;61301;51.956;5.876;2023-05-07T11:32:48;26.47;45.70
73112;HTU21D;61301;51.956;5.876;2023-05-07T11:35:17;26.49;45.72
73112;HTU21D;61301;51.956;5.876;2023-05-07T11:37:45;26.52;46.23
73112;HTU21D;61301;51.956;5.876;2023-05-07T11:40:13;26.58;46.21
73112;HTU21D;61301;51.956;5.876;2023-05-07T11:42:40;26.58;45.56
73112;HTU21D;61301;51.956;5.876;2023-05-07T11:45:08;26.62;45.81
73112;HTU21D;61301;51.956;5.876;2023-05-07T11:47:35;26.62;45.28
73112;HTU21D;61301;51.956;5.876;2023-05-07T11:50:06;26.47;44.42
73112;HTU21D;61301;51.956;5.876;2023-05-07T11:52:33;26.41;45.09
73112;HTU21D;61301;51.956;5.876;2023-05-07T11:55:00;26.42;45.06
73112;HTU21D;61301;51.956;5.876;2023-05-07T11:57:27;26.35;45.16
73112;HTU21D;61301;51.956;5.876;2023-05-07T11:59:58;26.37;45.66
73112;HTU21D;61301;51.956;5.876;2023-05-07T12:02:25;26.53;45.78
73112;HTU21D;61301;51.956;5.876;2023-05-07T12:04:52;26.62;45.32
73112;HTU21D;61301;51.956;5.876;2023-05-07T12:07:18;26.73;45.56
73112;HTU21D;61301;51.956;5.876;2023-05-07T12:09:45;26.78;45.51
73112;HTU21D;61301;51.956;5.876;2023-05-07T12:12:11;26.77;44.78
73112;HTU21D;61301;51.956;5.876;2023-05-07T12:14:45;26.76;44.67
73112;HTU21D;61301;51.956;5.876;2023-05-07T12:17:13;26.76;45.03
73112;HTU21D;61301;51.956;5.876;2023-05-07T12:19:41;26.75;45.08
73112;HTU21D;61301;51.956;5.876;2023-05-07T12:22:08;26.67;45.15
73112;HTU21D;61301;51.956;5.876;2023-05-07T12:24:48;26.54;44.58
73112;HTU21D;61301;51.956;5.876;2023-05-07T12:27:15;26.41;45.92
73112;HTU21D;61301;51.956;5.876;2023-05-07T12:29:49;26.45;46.38
73112;HTU21D;61301;51.956;5.876;2023-05-07T12:32:19;26.48;46.97
73112;HTU21D;61301;51.956;5.876;2023-05-07T12:34:49;26.43;46.83
73112;HTU21D;61301;51.956;5.876;2023-05-07T12:37:15;26.33;46.99
73112;HTU21D;61301;51.956;5.876;2023-05-07T12:39:47;26.32;47.25
73112;HTU21D;61301;51.956;5.876;2023-05-07T12:42:19;26.32;47.81
73112;HTU21D;61301;51.956;5.876;2023-05-07T12:44:46;26.28;47.54
73112;HTU21D;61301;51.956;5.876;2023-05-07T12:47:12;26.32;47.44
73112;HTU21D;61301;51.956;5.876;2023-05-07T12:49:38;26.24;47.34
73112;HTU21D;61301;51.956;5.876;2023-05-07T12:52:06;26.24;47.28
73112;HTU21D;61301;51.956;5.876;2023-05-07T12:54:33;26.22;47.44
73112;HTU21D;61301;51.956;5.876;2023-05-07T12:57:05;26.28;47.52
73112;HTU21D;61301;51.956;5.876;2023-05-07T12:59:36;26.26;46.75
73112;HTU21D;61301;51.956;5.876;2023-05-07T13:02:02;26.26;46.76
73112;HTU21D;61301;51.956;5.876;2023-05-07T13:04:28;26.26;47.19
73112;HTU21D;61301;51.956;5.876;2023-05-07T13:06:54;26.32;47.24
73112;HTU21D;61301;51.956;5.876;2023-05-07T13:09:20;26.40;47.28
73112;HTU21D;61301;51.956;5.876;2023-05-07T13:11:46;26.35;46.53
73112;HTU21D;61301;51.956;5.876;2023-05-07T13:14:15;26.30;46.50
73112;HTU21D;61301;51.956;5.876;2023-05-07T13:16:41;26.28;46.34
73112;HTU21D;61301;51.956;5.876;2023-05-07T13:19:07;26.23;46.17
73112;HTU21D;61301;51.956;5.876;2023-05-07T13:21:33;26.17;45.99
73112;HTU21D;61301;51.956;5.876;2023-05-07T13:23:59;26.07;45.57
73112;HTU21D;61301;51.956;5.876;2023-05-07T13:26:25;26.01;45.56
73112;HTU21D;61301;51.956;5.876;2023-05-07T13:28:55;25.97;45.58
73112;HTU21D;61301;51.956;5.876;2023-05-07T13:31:21;25.95;45.28
73112;HTU21D;61301;51.956;5.876;2023-05-07T13:33:50;25.88;45.36
73112;HTU21D;61301;51.956;5.876;2023-05-07T13:36:16;25.89;45.67
73112;HTU21D;61301;51.956;5.876;2023-05-07T13:38:42;25.95;45.48
73112;HTU21D;61301;51.956;5.876;2023-05-07T13:41:08;25.99;45.45
73112;HTU21D;61301;51.956;5.876;2023-05-07T13:43:34;26.11;45.07
73112;HTU21D;61301;51.956;5.876;2023-05-07T13:46:00;26.19;45.06
73112;HTU21D;61301;51.956;5.876;2023-05-07T13:48:27;26.26;45.01
73112;HTU21D;61301;51.956;5.876;2023-05-07T13:50:54;26.35;44.22
73112;HTU21D;61301;51.956;5.876;2023-05-07T13:53:20;26.40;44.25
73112;HTU21D;61301;51.956;5.876;2023-05-07T13:55:46;26.55;43.78
73112;HTU21D;61301;51.956;5.876;2023-05-07T13:58:12;26.67;43.88
73112;HTU21D;61301;51.956;5.876;2023-05-07T14:00:38;26.94;43.57
73112;HTU21D;61301;51.956;5.876;2023-05-07T14:03:05;26.98;42.66
73112;HTU21D;61301;51.956;5.876;2023-05-07T14:05:31;27.02;43.22
73112;HTU21D;61301;51.956;5.876;2023-05-07T14:07:57;27.14;42.81
73112;HTU21D;61301;51.956;5.876;2023-05-07T14:10:24;27.11;42.54
73112;HTU21D;61301;51.956;5.876;2023-05-07T14:12:50;27.10;42.78
73112;HTU21D;61301;51.956;5.876;2023-05-07T14:15:16;27.12;42.55
73112;HTU21D;61301;51.956;5.876;2023-05-07T14:17:43;27.06;42.24
73112;HTU21D;61301;51.956;5.876;2023-05-07T14:20:09;26.96;42.72
73112;HTU21D;61301;51.956;5.876;2023-05-07T14:22:36;27.01;43.10
73112;HTU21D;61301;51.956;5.876;2023-05-07T14:25:02;27.00;42.66
73112;HTU21D;61301;51.956;5.876;2023-05-07T14:27:28;26.93;42.73
73112;HTU21D;61301;51.956;5.876;2023-05-07T14:29:54;26.93;42.84
73112;HTU21D;61301;51.956;5.876;2023-05-07T14:32:22;26.89;43.04
73112;HTU21D;61301;51.956;5.876;2023-05-07T14:34:48;26.89;43.00
73112;HTU21D;61301;51.956;5.876;2023-05-07T14:37:14;26.86;43.12
73112;HTU21D;61301;51.956;5.876;2023-05-07T14:39:40;26.84;42.68
73112;HTU21D;61301;51.956;5.876;2023-05-07T14:42:07;26.73;42.93
73112;HTU21D;61301;51.956;5.876;2023-05-07T14:44:35;26.64;42.81
73112;HTU21D;61301;51.956;5.876;2023-05-07T14:47:01;26.42;43.16
73112;HTU21D;61301;51.956;5.876;2023-05-07T14:49:27;26.36;43.56
73112;HTU21D;61301;51.956;5.876;2023-05-07T14:51:53;26.34;43.69
73112;HTU21D;61301;51.956;5.876;2023-05-07T14:54:20;26.35;43.94
73112;HTU21D;61301;51.956;5.876;2023-05-07T14:56:46;26.32;44.05
73112;HTU21D;61301;51.956;5.876;2023-05-07T14:59:12;26.18;44.20
73112;HTU21D;61301;51.956;5.876;2023-05-07T15:01:38;25.97;44.41
73112;HTU21D;61301;51.956;5.876;2023-05-07T15:04:08;25.86;44.27
73112;HTU21D;61301;51.956;5.876;2023-05-07T15:06:34;25.67;44.16
73112;HTU21D;61301;51.956;5.876;2023-05-07T15:09:00;25.58;44.30
73112;HTU21D;61301;51.956;5.876;2023-05-07T15:11:26;25.58;44.25
73112;HTU21D;61301;51.956;5.876;2023-05-07T15:13:52;25.57;44.13
73112;HTU21D;61301;51.956;5.876;2023-05-07T15:16:18;25.57;44.13
73112;HTU21D;61301;51.956;5.876;2023-05-07T15:18:44;25.58;43.84
73112;HTU21D;61301;51.956;5.876;2023-05-07T15:21:10;25.28;43.32
73112;HTU21D;61301;51.956;5.876;2023-05-07T15:23:37;24.86;43.87
73112;HTU21D;61301;51.956;5.876;2023-05-07T15:26:04;24.68;44.43
73112;HTU21D;61301;51.956;5.876;2023-05-07T15:28:30;24.42;45.17
73112;HTU21D;61301;51.956;5.876;2023-05-07T15:30:58;24.21;45.86
73112;HTU21D;61301;51.956;5.876;2023-05-07T15:33:24;23.53;47.96
73112;HTU21D;61301;51.956;5.876;2023-05-07T15:35:50;23.23;48.86